Time;durP1;ratioP1;P1;durP2;ratioP2;P2;SDS_P1;SDS_P2;PMS_P1;PMS_P2;Temp;Humidity;BMP_temperature;BMP_pressure;BME280_temperature;BME280_humidity;BME280_pressure;Samples;Min_cycle;Max_cycle;Signal;HPM_P1;HPM_P2
2023/01/17 00:00:18;;;;;;;7.45;2.50;;;;;;;2.39;100.00;98391.09;5361154;27;20106;-84
2023/01/17 00:02:49;;;;;;;8.77;1.70;;;;;;;2.41;100.00;98391.78;5362024;27;20475;-83
2023/01/17 00:11:03;;;;;;;6.35;1.50;;;;;;;2.35;100.00;98402.91;5360499;27;20043;-83
2023/01/17 00:13:34;;;;;;;6.13;1.38;;;;;;;2.32;100.00;98408.47;5359376;27;20054;-83
2023/01/17 00:16:06;;;;;;;5.60;1.48;;;;;;;2.33;100.00;98414.53;5358905;27;20037;-83
2023/01/17 00:18:37;;;;;;;5.53;1.60;;;;;;;2.32;100.00;98420.81;5362545;27;20045;-83
2023/01/17 01:35:52;;;;;;;2.30;1.65;;;;;;;1.24;100.00;98518.44;5339823;27;20035;-84
2023/01/17 01:38:24;;;;;;;3.85;2.17;;;;;;;1.12;100.00;98527.44;5334566;27;22414;-84
2023/01/17 01:40:55;;;;;;;3.85;2.80;;;;;;;0.99;100.00;98532.97;5336881;27;20048;-83
2023/01/17 01:43:54;;;;;;;3.50;3.20;;;;;;;0.96;100.00;98540.28;5338319;27;20499;-84
2023/01/17 01:46:34;;;;;;;3.60;3.28;;;;;;;0.86;100.00;98549.00;5337078;27;20035;-83
2023/01/17 01:49:13;;;;;;;5.10;3.67;;;;;;;0.84;100.00;98548.31;5317958;27;20046;-83
2023/01/17 01:51:53;;;;;;;4.20;3.75;;;;;;;0.84;100.00;98553.56;5334612;27;20163;-83
2023/01/17 01:54:30;;;;;;;4.85;3.75;;;;;;;0.76;100.00;98566.53;5332245;27;20036;-82
2023/01/17 01:57:06;;;;;;;3.92;3.53;;;;;;;0.67;100.00;98570.78;5326865;27;20036;-83
2023/01/17 01:59:43;;;;;;;3.80;3.50;;;;;;;0.73;100.00;98569.41;5337744;27;20016;-83
2023/01/17 02:02:15;;;;;;;5.45;3.78;;;;;;;0.81;100.00;98571.34;5334625;27;20254;-83
2023/01/17 02:04:47;;;;;;;4.30;3.90;;;;;;;0.92;100.00;98574.69;5334773;27;20080;-83
2023/01/17 02:07:27;;;;;;;5.85;4.07;;;;;;;1.02;100.00;98574.72;5332993;27;20024;-84
2023/01/17 02:09:59;;;;;;;8.10;3.83;;;;;;;1.05;100.00;98576.22;5337095;27;20024;-84
2023/01/17 02:12:31;;;;;;;8.57;4.15;;;;;;;1.03;100.00;98578.16;5334403;27;20055;-82
2023/01/17 02:15:05;;;;;;;6.68;3.75;;;;;;;1.09;100.00;98582.88;5333459;27;20016;-82
2023/01/17 02:17:57;;;;;;;5.28;3.63;;;;;;;1.16;100.00;98588.38;5329217;27;20039;-83
2023/01/17 02:21:05;;;;;;;6.43;3.47;;;;;;;1.29;100.00;98599.47;5336790;27;20494;-82
2023/01/17 02:23:58;;;;;;;8.10;2.60;;;;;;;1.29;100.00;98608.16;5332682;27;20040;-82
2023/01/17 02:26:33;;;;;;;7.55;2.00;;;;;;;1.23;100.00;98611.34;5331767;27;20032;-82
2023/01/17 02:29:42;;;;;;;6.90;1.50;;;;;;;1.20;100.00;98619.50;5336278;27;20031;-83
2023/01/17 02:32:22;;;;;;;6.13;1.45;;;;;;;1.04;100.00;98627.09;5335179;27;20035;-83
2023/01/17 02:35:27;;;;;;;2.72;1.10;;;;;;;0.98;100.00;98610.06;5333923;27;20469;-83
2023/01/17 02:38:20;;;;;;;3.08;0.90;;;;;;;0.85;100.00;98614.75;5332808;27;20460;-83
2023/01/17 02:40:57;;;;;;;2.10;0.73;;;;;;;0.77;100.00;98588.34;5340874;27;20024;-84
2023/01/17 02:43:29;;;;;;;3.70;0.82;;;;;;;0.67;100.00;98593.59;5336515;27;20526;-83
2023/01/17 02:46:00;;;;;;;5.32;0.68;;;;;;;0.65;100.00;98583.22;5339283;27;20147;-83
2023/01/17 02:48:35;;;;;;;3.65;0.60;;;;;;;0.63;100.00;98586.94;5335606;27;20012;-84
2023/01/17 02:51:32;;;;;;;4.60;0.52;;;;;;;0.62;100.00;98596.59;5333995;27;20028;-84
2023/01/17 02:54:22;;;;;;;4.15;0.82;;;;;;;0.55;100.00;98608.59;5336390;27;20012;-84
2023/01/17 02:57:35;;;;;;;3.97;0.40;;;;;;;0.49;100.00;98599.47;5339861;27;20387;-83
2023/01/17 03:00:28;;;;;;;3.65;0.47;;;;;;;0.43;100.00;98607.03;5334574;27;20077;-83
2023/01/17 03:03:27;;;;;;;6.65;0.75;;;;;;;0.34;100.00;98611.28;5340232;27;20555;-83
2023/01/17 03:06:10;;;;;;;5.70;0.60;;;;;;;0.24;100.00;98623.50;5319701;27;20045;-83
2023/01/17 03:08:43;;;;;;;3.10;0.60;;;;;;;0.13;100.00;98630.50;5338631;27;20028;-83
2023/01/17 03:11:15;;;;;;;4.97;0.82;;;;;;;0.08;100.00;98626.59;5338348;27;20396;-83
2023/01/17 03:13:46;;;;;;;4.88;1.05;;;;;;;0.05;100.00;98630.31;5334444;27;20024;-83
2023/01/17 03:16:20;;;;;;;4.20;0.77;;;;;;;-0.07;100.00;98631.34;5328602;27;20058;-83
2023/01/17 03:18:52;;;;;;;4.30;0.90;;;;;;;-0.14;100.00;98636.28;5330238;27;20031;-83
2023/01/17 03:21:24;;;;;;;3.40;0.70;;;;;;;-0.17;100.00;98640.97;5335973;27;20024;-83
2023/01/17 03:23:55;;;;;;;4.00;0.90;;;;;;;-0.24;100.00;98628.34;5333467;27;20034;-83
2023/01/17 03:26:27;;;;;;;1.60;0.80;;;;;;;-0.17;100.00;98633.91;5313191;27;20384;-84
2023/01/17 03:28:58;;;;;;;4.90;0.90;;;;;;;-0.27;100.00;98636.47;5329820;27;20050;-84
2023/01/17 03:31:29;;;;;;;4.95;1.13;;;;;;;-0.31;100.00;98642.91;5331798;27;20055;-84
2023/01/17 03:34:00;;;;;;;3.60;1.10;;;;;;;-0.32;100.00;98640.44;5333177;27;20024;-84
2023/01/17 03:36:32;;;;;;;5.03;1.20;;;;;;;-0.35;100.00;98643.28;5333435;27;20028;-83
2023/01/17 03:39:03;;;;;;;3.92;1.17;;;;;;;-0.35;100.00;98645.91;5332005;27;20028;-83
2023/01/17 03:41:34;;;;;;;1.60;1.08;;;;;;;-0.39;100.00;98646.19;5335109;27;20089;-83
2023/01/17 03:44:06;;;;;;;7.57;2.55;;;;;;;-0.38;100.00;98641.78;5335008;27;20035;-82
2023/01/17 03:46:37;;;;;;;6.15;1.45;;;;;;;-0.35;100.00;98640.66;5336211;27;20514;-83
2023/01/17 03:49:08;;;;;;;6.10;1.40;;;;;;;-0.28;100.00;98647.91;5328118;27;20024;-83
2023/01/17 03:51:40;;;;;;;4.63;2.03;;;;;;;-0.25;100.00;98646.81;5330492;27;20445;-83
2023/01/17 03:54:11;;;;;;;6.03;1.88;;;;;;;-0.25;100.00;98650.25;5333144;27;20103;-83
2023/01/17 03:56:42;;;;;;;9.98;2.10;;;;;;;-0.30;100.00;98646.38;5336408;27;20528;-83
2023/01/17 03:59:13;;;;;;;3.55;2.28;;;;;;;-0.34;100.00;98644.97;5338819;27;20077;-84
2023/01/17 04:01:45;;;;;;;5.28;2.10;;;;;;;-0.36;100.00;98639.84;5331859;27;20031;-83
2023/01/17 04:04:16;;;;;;;4.90;2.08;;;;;;;-0.36;100.00;98647.72;5335721;27;20032;-83
2023/01/17 04:06:48;;;;;;;5.45;2.50;;;;;;;-0.34;100.00;98637.94;5337559;27;20028;-83
2023/01/17 04:09:19;;;;;;;8.23;3.28;;;;;;;-0.34;100.00;98648.41;5315312;27;20400;-84
2023/01/17 04:11:52;;;;;;;7.80;3.10;;;;;;;-0.34;100.00;98642.34;5337201;27;20046;-83
2023/01/17 04:14:23;;;;;;;8.45;3.03;;;;;;;-0.34;100.00;98652.81;5329903;27;20524;-83
2023/01/17 04:16:55;;;;;;;6.55;3.33;;;;;;;-0.38;100.00;98647.00;5336594;27;20043;-83
2023/01/17 04:19:26;;;;;;;7.38;3.53;;;;;;;-0.37;100.00;98648.66;5330719;27;20027;-83
2023/01/17 04:21:57;;;;;;;9.13;3.70;;;;;;;-0.32;100.00;98648.28;5335418;27;20035;-83
2023/01/17 04:24:29;;;;;;;6.72;3.10;;;;;;;-0.34;100.00;98644.97;5340814;27;20019;-82
2023/01/17 04:27:00;;;;;;;6.53;3.35;;;;;;;-0.42;100.00;98645.56;5346276;27;21180;-83
2023/01/17 04:29:31;;;;;;;6.88;3.10;;;;;;;-0.41;100.00;98644.63;5360815;27;20031;-83
2023/01/17 04:32:03;;;;;;;6.82;2.88;;;;;;;-0.43;100.00;98639.53;5350582;27;20753;-83
2023/01/17 04:34:34;;;;;;;6.50;3.95;;;;;;;-0.42;100.00;98635.97;5332923;27;20040;-83
2023/01/17 04:37:06;;;;;;;6.65;3.00;;;;;;;-0.41;100.00;98640.22;5319376;27;20047;-83
2023/01/17 04:39:37;;;;;;;10.32;2.88;;;;;;;-0.36;100.00;98641.66;5335559;27;20028;-83
2023/01/17 04:42:08;;;;;;;6.00;3.25;;;;;;;-0.39;100.00;98645.34;5336379;27;20434;-82
2023/01/17 04:44:40;;;;;;;8.05;2.67;;;;;;;-0.38;100.00;98642.59;5339775;27;20032;-82
2023/01/17 04:47:11;;;;;;;6.88;3.13;;;;;;;-0.41;100.00;98653.31;5335387;27;20027;-84
2023/01/17 04:49:42;;;;;;;10.50;2.50;;;;;;;-0.44;100.00;98645.72;5332459;27;20504;-84
2023/01/17 04:52:17;;;;;;;9.35;2.72;;;;;;;-0.44;100.00;98648.34;5317463;27;20061;-83
2023/01/17 04:54:48;;;;;;;8.20;3.70;;;;;;;-0.36;100.00;98663.44;5340583;27;20059;-83
2023/01/17 04:57:20;;;;;;;11.10;4.18;;;;;;;-0.32;100.00;98656.97;5338362;27;20106;-83
2023/01/17 04:59:54;;;;;;;10.88;4.93;;;;;;;-0.27;100.00;98662.66;5333539;27;20084;-83
2023/01/17 05:02:25;;;;;;;18.05;7.32;;;;;;;-0.26;100.00;98661.72;5332671;27;20018;-83
2023/01/17 05:04:57;;;;;;;13.20;6.25;;;;;;;-0.25;100.00;98665.16;5333925;27;20020;-83
2023/01/17 05:07:28;;;;;;;18.83;7.95;;;;;;;-0.24;100.00;98664.22;5334455;27;20027;-83
2023/01/17 05:09:59;;;;;;;18.80;7.95;;;;;;;-0.26;100.00;98656.47;5335931;27;20102;-83
2023/01/17 05:12:31;;;;;;;20.13;9.27;;;;;;;-0.32;100.00;98651.72;5335795;27;20028;-83
2023/01/17 05:15:02;;;;;;;22.02;9.73;;;;;;;-0.34;100.00;98658.06;5332131;27;20472;-83
2023/01/17 05:17:34;;;;;;;19.30;10.55;;;;;;;-0.39;100.00;98664.53;5317228;27;20093;-84
2023/01/17 05:20:06;;;;;;;21.35;12.30;;;;;;;-0.38;100.00;98658.31;5334061;27;20024;-83
2023/01/17 05:22:37;;;;;;;25.23;12.25;;;;;;;-0.38;100.00;98658.31;5333435;27;20046;-83
2023/01/17 05:25:08;;;;;;;22.50;11.65;;;;;;;-0.40;100.00;98660.22;5332972;27;20040;-84
2023/01/17 05:27:40;;;;;;;21.50;11.98;;;;;;;-0.42;100.00;98664.78;5331636;27;20545;-84
2023/01/17 05:30:11;;;;;;;26.52;12.82;;;;;;;-0.47;100.00;98655.63;5334015;27;20437;-84
2023/01/17 05:32:50;;;;;;;26.45;12.60;;;;;;;-0.55;100.00;98666.72;5340336;27;20019;-83
2023/01/17 05:35:24;;;;;;;20.52;10.73;;;;;;;-0.65;100.00;98665.78;5314596;27;20107;-84
2023/01/17 05:37:56;;;;;;;18.50;9.88;;;;;;;-0.76;100.00;98667.50;5328666;27;20032;-82
2023/01/17 05:40:29;;;;;;;22.15;9.73;;;;;;;-0.73;100.00;98678.69;5333414;27;20143;-83
2023/01/17 05:43:04;;;;;;;19.00;9.65;;;;;;;-0.72;100.00;98681.16;5338138;27;20023;-83
2023/01/17 05:45:35;;;;;;;19.40;9.88;;;;;;;-0.68;100.00;98685.22;5337166;27;20107;-84
2023/01/17 05:48:08;;;;;;;17.85;8.80;;;;;;;-0.66;100.00;98688.53;5332940;27;20028;-84
2023/01/17 05:50:39;;;;;;;16.55;8.45;;;;;;;-0.65;100.00;98690.22;5327068;27;20106;-84
2023/01/17 05:53:13;;;;;;;18.58;8.65;;;;;;;-0.67;100.00;98696.50;5345239;27;20030;-83
2023/01/17 05:55:44;;;;;;;17.85;8.63;;;;;;;-0.75;100.00;98699.75;5344467;27;20042;-84
2023/01/17 05:58:18;;;;;;;21.50;11.18;;;;;;;-0.75;100.00;98697.13;5336589;27;20468;-83
2023/01/17 06:00:49;;;;;;;22.10;11.10;;;;;;;-0.71;100.00;98698.53;5341337;27;20019;-83
2023/01/17 06:03:21;;;;;;;24.92;12.93;;;;;;;-0.75;100.00;98699.75;5343298;27;20109;-83
2023/01/17 06:05:52;;;;;;;34.75;15.70;;;;;;;-0.73;100.00;98695.22;5341651;27;20472;-83
2023/01/17 06:08:23;;;;;;;36.40;17.75;;;;;;;-0.72;100.00;98694.25;5343811;27;20032;-83
2023/01/17 06:10:57;;;;;;;37.83;18.40;;;;;;;-0.73;100.00;98694.41;5342463;27;20114;-84
2023/01/17 06:13:28;;;;;;;31.83;18.08;;;;;;;-0.79;100.00;98683.47;5341821;27;20119;-84
2023/01/17 06:16:02;;;;;;;36.08;17.08;;;;;;;-0.79;100.00;98687.84;5339983;27;21011;-84
2023/01/17 06:18:34;;;;;;;30.83;18.40;;;;;;;-0.83;100.00;98691.69;5346030;27;20036;-85
2023/01/17 06:21:05;;;;;;;33.33;18.02;;;;;;;-0.87;100.00;98698.94;5348195;27;20039;-83
2023/01/17 06:23:36;;;;;;;32.88;18.88;;;;;;;-0.88;100.00;98699.06;5339082;27;20508;-84
2023/01/17 06:26:08;;;;;;;33.50;17.55;;;;;;;-0.91;100.00;98699.28;5336143;27;20085;-82
2023/01/17 06:28:39;;;;;;;31.45;18.17;;;;;;;-0.92;100.00;98706.31;5342018;27;20027;-83
2023/01/17 06:31:11;;;;;;;34.47;18.63;;;;;;;-0.98;100.00;98696.38;5338371;27;20148;-84
2023/01/17 06:33:42;;;;;;;35.72;18.85;;;;;;;-0.97;100.00;98698.00;5312677;27;20052;-83
2023/01/17 06:36:13;;;;;;;33.85;18.15;;;;;;;-1.06;100.00;98699.56;5335918;27;20324;-83
2023/01/17 06:38:49;;;;;;;34.38;17.52;;;;;;;-1.09;100.00;98704.22;5329941;27;20027;-82
2023/01/17 06:41:24;;;;;;;43.15;18.17;;;;;;;-1.11;100.00;98699.09;5334645;27;20020;-83
2023/01/17 06:43:56;;;;;;;34.17;17.13;;;;;;;-1.12;100.00;98702.69;5311394;27;20039;-84
2023/01/17 06:46:27;;;;;;;33.95;17.45;;;;;;;-1.20;100.00;98712.91;5330170;27;20595;-84
2023/01/17 06:48:58;;;;;;;29.88;17.35;;;;;;;-1.21;100.00;98703.38;5335161;27;20016;-84
2023/01/17 06:51:30;;;;;;;27.10;16.60;;;;;;;-1.24;100.00;98704.47;5319280;27;20082;-83
2023/01/17 06:54:01;;;;;;;30.92;17.65;;;;;;;-1.23;100.00;98711.34;5342916;27;20383;-83
2023/01/17 06:56:32;;;;;;;35.22;17.40;;;;;;;-1.33;100.00;98710.41;5321005;27;20035;-81
2023/01/17 06:59:04;;;;;;;33.97;17.08;;;;;;;-1.36;100.00;98708.03;5343765;27;20032;-82
2023/01/17 07:01:35;;;;;;;34.25;18.45;;;;;;;-1.37;100.00;98703.75;5340715;27;20031;-82
2023/01/17 07:04:06;;;;;;;33.90;17.75;;;;;;;-1.39;100.00;98701.25;5347794;27;20020;-82
2023/01/17 07:06:38;;;;;;;35.40;17.08;;;;;;;-1.39;100.00;98710.88;5333986;27;20028;-83
2023/01/17 07:09:09;;;;;;;34.47;17.30;;;;;;;-1.37;100.00;98708.97;5333547;27;20023;-83
2023/01/17 07:11:40;;;;;;;36.50;18.60;;;;;;;-1.40;100.00;98712.66;5337318;27;20032;-83
2023/01/17 07:14:12;;;;;;;38.22;19.92;;;;;;;-1.31;100.00;98713.75;5336279;27;20012;-82
2023/01/17 07:16:44;;;;;;;36.33;18.25;;;;;;;-1.35;100.00;98712.28;5346610;27;20432;-83
2023/01/17 07:19:16;;;;;;;34.55;17.38;;;;;;;-1.14;100.00;98709.78;5339937;27;20044;-82
2023/01/17 07:21:51;;;;;;;44.45;20.60;;;;;;;-1.03;100.00;98714.22;5365826;27;20055;-82
2023/01/17 07:24:23;;;;;;;43.63;20.10;;;;;;;-1.04;100.00;98709.91;5357779;27;20126;-82
2023/01/17 07:26:54;;;;;;;39.95;20.60;;;;;;;-0.96;100.00;98710.16;5334608;27;20380;-82
2023/01/17 07:29:25;;;;;;;35.75;19.17;;;;;;;-0.80;100.00;98715.81;5344728;27;20043;-83
2023/01/17 07:31:57;;;;;;;50.33;22.98;;;;;;;-0.93;100.00;98709.06;5337279;27;20077;-81
2023/01/17 07:34:28;;;;;;;49.33;24.60;;;;;;;-0.82;100.00;98717.75;5341688;27;20362;-83
2023/01/17 07:37:00;;;;;;;45.90;22.23;;;;;;;-0.80;100.00;98726.28;5337427;27;20077;-82
2023/01/17 07:39:32;;;;;;;45.33;22.80;;;;;;;-0.97;100.00;98722.38;5339207;27;20020;-82
2023/01/17 07:42:03;;;;;;;37.65;20.70;;;;;;;-1.08;100.00;98730.25;5335156;27;20019;-82
2023/01/17 07:44:34;;;;;;;39.80;20.15;;;;;;;-1.21;100.00;98726.91;5338234;27;20040;-82
2023/01/17 07:47:06;;;;;;;41.90;20.17;;;;;;;-1.26;100.00;98726.44;5339501;27;20515;-82
2023/01/17 07:49:37;;;;;;;36.63;20.27;;;;;;;-1.24;100.00;98732.41;5339069;27;20184;-82
2023/01/17 07:52:08;;;;;;;39.45;20.25;;;;;;;-1.33;100.00;98733.97;5338634;27;20035;-81
2023/01/17 07:54:40;;;;;;;39.08;19.48;;;;;;;-1.26;100.00;98735.16;5340897;27;20023;-82
2023/01/17 07:57:11;;;;;;;46.30;21.13;;;;;;;-1.28;100.00;98731.81;5335049;27;20047;-82
2023/01/17 07:59:43;;;;;;;43.40;21.27;;;;;;;-1.21;100.00;98735.63;5337047;27;20056;-82
2023/01/17 08:02:20;;;;;;;41.15;20.70;;;;;;;-1.18;100.00;98724.06;5332217;27;20032;-82
2023/01/17 08:04:51;;;;;;;44.10;21.90;;;;;;;-1.18;100.00;98732.75;5335498;27;20066;-83
2023/01/17 08:07:22;;;;;;;45.22;21.95;;;;;;;-1.12;100.00;98728.00;5333197;27;20052;-82
2023/01/17 08:09:54;;;;;;;46.53;22.10;;;;;;;-1.11;100.00;98724.44;5345417;27;20371;-82
2023/01/17 08:12:25;;;;;;;40.53;21.30;;;;;;;-1.02;100.00;98737.63;5345289;27;20048;-82
2023/01/17 08:14:57;;;;;;;44.80;22.75;;;;;;;-0.98;100.00;98735.63;5344414;27;20032;-83
2023/01/17 08:17:28;;;;;;;50.30;22.88;;;;;;;-0.94;100.00;98729.19;5343927;27;20380;-83
2023/01/17 08:19:59;;;;;;;46.80;23.17;;;;;;;-0.86;100.00;98726.78;5345793;27;20015;-83
2023/01/17 08:22:31;;;;;;;54.17;23.83;;;;;;;-0.77;100.00;98739.16;5345340;27;20130;-83
2023/01/17 08:25:02;;;;;;;44.85;21.95;;;;;;;-0.71;100.00;98722.13;5345371;27;20107;-82
2023/01/17 08:27:34;;;;;;;47.17;24.95;;;;;;;-0.70;100.00;98743.88;5345355;27;20558;-82
2023/01/17 08:30:06;;;;;;;44.72;22.60;;;;;;;-0.66;100.00;98740.09;5345838;27;20027;-83
2023/01/17 08:32:39;;;;;;;38.35;21.52;;;;;;;-0.64;100.00;98748.66;5344926;27;20077;-83
2023/01/17 08:35:13;;;;;;;45.00;23.05;;;;;;;-0.67;100.00;98746.25;5345574;27;20026;-83
2023/01/17 08:37:46;;;;;;;42.17;21.63;;;;;;;-0.66;100.00;98750.56;5345284;27;20135;-83
2023/01/17 08:40:18;;;;;;;39.08;21.92;;;;;;;-0.65;100.00;98753.06;5345977;27;20109;-83
2023/01/17 08:42:58;;;;;;;43.17;23.33;;;;;;;-0.63;100.00;98745.06;5344700;27;20419;-83
2023/01/17 08:45:29;;;;;;;43.40;22.20;;;;;;;-0.64;100.00;98757.31;5342361;27;20035;-84
2023/01/17 08:48:00;;;;;;;43.60;22.63;;;;;;;-0.64;100.00;98748.66;5345313;27;20479;-83
2023/01/17 08:50:32;;;;;;;44.25;22.55;;;;;;;-0.60;100.00;98747.44;5334126;27;20024;-84
2023/01/17 08:53:03;;;;;;;46.28;22.67;;;;;;;-0.52;100.00;98755.53;5327572;28;20134;-83
2023/01/17 08:55:38;;;;;;;42.85;21.70;;;;;;;-0.50;100.00;98756.22;5327435;28;20593;-83
2023/01/17 08:58:09;;;;;;;41.03;22.08;;;;;;;-0.48;100.00;98758.72;5326935;28;20028;-83
2023/01/17 09:00:40;;;;;;;45.90;22.20;;;;;;;-0.41;100.00;98757.28;5347384;27;20028;-84
2023/01/17 09:03:12;;;;;;;46.47;22.90;;;;;;;-0.42;100.00;98751.22;5348410;27;20072;-83
2023/01/17 09:05:44;;;;;;;40.47;21.40;;;;;;;-0.32;100.00;98759.13;5348897;27;20031;-83
2023/01/17 09:08:15;;;;;;;40.20;22.77;;;;;;;-0.24;100.00;98761.16;5348310;27;20074;-84
2023/01/17 09:10:46;;;;;;;35.50;21.65;;;;;;;-0.24;100.00;98767.22;5348731;27;20101;-83
2023/01/17 09:13:18;;;;;;;38.90;21.77;;;;;;;-0.04;100.00;98762.97;5347691;27;20356;-84
2023/01/17 09:15:49;;;;;;;40.72;23.63;;;;;;;-0.03;100.00;98761.19;5347496;27;20058;-83
2023/01/17 09:18:20;;;;;;;41.22;22.92;;;;;;;0.16;100.00;98760.50;5348133;27;20024;-83
2023/01/17 09:20:58;;;;;;;42.63;22.08;;;;;;;0.30;100.00;98765.44;5348837;27;20066;-84
2023/01/17 09:23:29;;;;;;;43.72;24.45;;;;;;;0.43;100.00;98761.78;5349331;27;20051;-83
2023/01/17 09:26:01;;;;;;;38.83;23.35;;;;;;;0.57;100.00;98770.16;5351024;27;20019;-83
2023/01/17 09:28:39;;;;;;;39.85;21.83;;;;;;;0.62;100.00;98767.16;5358363;27;20020;-81
2023/01/17 09:31:11;;;;;;;36.38;21.83;;;;;;;0.75;100.00;98766.94;5350668;27;20407;-81
2023/01/17 09:33:42;;;;;;;36.47;20.70;;;;;;;0.84;100.00;98762.69;5352656;27;20019;-82
2023/01/17 09:36:14;;;;;;;32.15;20.02;;;;;;;1.00;100.00;98763.06;5359725;27;20149;-83
2023/01/17 09:38:56;;;;;;;29.67;19.23;;;;;;;0.97;100.00;98763.31;5353315;27;20026;-82
2023/01/17 09:41:30;;;;;;;28.08;17.40;;;;;;;1.16;100.00;98767.81;5353203;27;20368;-83
2023/01/17 09:44:18;;;;;;;25.30;17.27;;;;;;;1.17;100.00;98763.38;5351937;27;20028;-83
2023/01/17 09:47:03;;;;;;;24.80;16.00;;;;;;;1.27;100.00;98765.06;5334159;27;20024;-83
2023/01/17 09:49:43;;;;;;;23.73;15.82;;;;;;;1.27;100.00;98767.69;5335880;27;20039;-83
2023/01/17 09:52:22;;;;;;;23.55;14.10;;;;;;;1.31;100.00;98771.72;5336629;27;20023;-84
2023/01/17 09:54:53;;;;;;;20.88;14.07;;;;;;;1.50;100.00;98777.97;5354378;27;20043;-82
2023/01/17 09:57:40;;;;;;;22.90;13.68;;;;;;;1.60;100.00;98772.75;5335486;27;20040;-83
2023/01/17 10:00:36;;;;;;;19.25;13.30;;;;;;;1.60;100.00;98776.22;5349273;27;20024;-82
2023/01/17 10:03:20;;;;;;;21.98;12.55;;;;;;;1.72;100.00;98776.06;5326609;28;20024;-83
2023/01/17 10:06:11;;;;;;;20.25;13.43;;;;;;;1.81;100.00;98781.34;5307759;28;20024;-82
2023/01/17 10:08:54;;;;;;;17.55;11.25;;;;;;;1.84;100.00;98780.25;5336949;27;20561;-83
2023/01/17 10:11:32;;;;;;;16.95;11.55;;;;;;;2.03;100.00;98780.28;5328811;27;20039;-83
2023/01/17 10:14:21;;;;;;;19.35;12.27;;;;;;;2.16;100.00;98780.00;5346664;27;20020;-83
2023/01/17 10:17:18;;;;;;;15.07;10.60;;;;;;;2.15;100.00;98788.00;5346779;27;20488;-83
2023/01/17 10:20:05;;;;;;;17.00;10.75;;;;;;;2.32;100.00;98782.06;5347171;27;20016;-84
2023/01/17 10:22:37;;;;;;;16.50;11.45;;;;;;;2.48;100.00;98786.75;5345905;27;20039;-83
2023/01/17 10:25:53;;;;;;;18.20;10.05;;;;;;;2.67;100.00;98779.78;5347743;27;20027;-84
2023/01/17 10:28:48;;;;;;;14.50;8.65;;;;;;;2.76;100.00;98774.47;5206241;28;20035;-83
2023/01/17 10:31:29;;;;;;;13.95;9.57;;;;;;;2.87;100.00;98777.91;5345085;27;20376;-83
2023/01/17 10:34:12;;;;;;;17.85;9.35;;;;;;;2.97;100.00;98778.72;5347220;27;20026;-83
2023/01/17 10:36:53;;;;;;;12.18;8.73;;;;;;;3.10;100.00;98778.38;5346423;27;20926;-83
2023/01/17 10:39:29;;;;;;;16.70;8.82;;;;;;;3.07;100.00;98776.88;5329111;27;20038;-83
2023/01/17 10:42:14;;;;;;;15.38;9.27;;;;;;;3.26;100.00;98780.38;5347016;27;20008;-83
2023/01/17 10:45:03;;;;;;;13.48;8.05;;;;;;;3.26;100.00;98786.50;5345830;27;20126;-83
2023/01/17 10:47:38;;;;;;;12.35;8.07;;;;;;;3.14;100.00;98791.13;5345939;27;20039;-84
2023/01/17 10:50:11;;;;;;;14.57;8.63;;;;;;;3.15;100.00;98794.59;5346717;27;20023;-83
2023/01/17 10:52:59;;;;;;;14.00;9.02;;;;;;;3.46;100.00;98794.31;5343183;27;20018;-83
2023/01/17 10:55:50;;;;;;;13.75;9.40;;;;;;;3.71;100.00;98795.41;5325483;28;20074;-83
2023/01/17 10:58:22;;;;;;;17.83;8.40;;;;;;;3.89;100.00;98800.69;5324666;28;20024;-84
2023/01/17 11:00:56;;;;;;;14.65;9.40;;;;;;;4.01;100.00;98783.66;5324852;28;20469;-84
2023/01/17 11:03:27;;;;;;;12.43;8.50;;;;;;;4.24;100.00;98791.13;5324692;28;20444;-84
2023/01/17 11:06:15;;;;;;;12.63;8.32;;;;;;;4.40;100.00;98788.66;5325143;28;20012;-84
2023/01/17 11:08:53;;;;;;;11.45;7.28;;;;;;;4.29;100.00;98784.41;5339551;27;20517;-84
2023/01/17 11:11:29;;;;;;;16.85;8.35;;;;;;;4.82;100.00;98781.81;5345384;27;20093;-84
2023/01/17 11:14:14;;;;;;;12.23;7.95;;;;;;;6.80;100.00;98779.47;5345886;27;20012;-84
2023/01/17 11:16:58;;;;;;;9.88;7.07;;;;;;;10.03;100.00;98773.00;5345891;27;20131;-85
2023/01/17 11:19:35;;;;;;;7.90;5.65;;;;;;;11.76;100.00;98772.53;5346368;27;20024;-84
2023/01/17 11:22:12;;;;;;;8.32;5.82;;;;;;;13.20;100.00;98767.66;5345399;27;20043;-85
2023/01/17 11:25:02;;;;;;;9.95;5.63;;;;;;;14.85;100.00;98758.09;5345506;27;20525;-84
2023/01/17 11:27:36;;;;;;;5.63;4.30;;;;;;;14.49;100.00;98760.44;5345563;27;20019;-85
2023/01/17 11:30:16;;;;;;;7.65;4.63;;;;;;;14.41;100.00;98759.88;5346249;27;20332;-84
2023/01/17 11:32:56;;;;;;;7.93;5.00;;;;;;;15.01;100.00;98767.44;5345414;27;20059;-84
2023/01/17 11:35:30;;;;;;;7.50;3.72;;;;;;;15.07;100.00;98759.31;5345792;27;20035;-85
2023/01/17 11:38:01;;;;;;;6.93;4.00;;;;;;;14.71;100.00;98755.53;5345008;27;20408;-85
2023/01/17 11:40:38;;;;;;;6.28;4.13;;;;;;;15.67;100.00;98757.81;5345749;27;20027;-85
2023/01/17 11:43:24;;;;;;;5.15;3.58;;;;;;;16.84;100.00;98758.41;5345261;27;20127;-85
2023/01/17 11:46:05;;;;;;;5.07;4.10;;;;;;;15.19;100.00;98742.47;5345451;27;20028;-85
2023/01/17 11:48:37;;;;;;;8.02;3.90;;;;;;;13.72;98.55;98740.94;5345833;27;20106;-84
2023/01/17 11:51:31;;;;;;;6.57;4.10;;;;;;;13.34;100.00;98739.03;5345738;27;20020;-85
2023/01/17 11:54:16;;;;;;;6.25;3.72;;;;;;;12.80;100.00;98741.81;5345899;27;20027;-85
2023/01/17 11:56:49;;;;;;;8.25;3.75;;;;;;;13.48;100.00;98743.31;5354889;27;20019;-84
2023/01/17 11:59:36;;;;;;;4.85;3.70;;;;;;;14.11;100.00;98739.03;5371376;27;20026;-82
2023/01/17 12:02:20;;;;;;;5.47;3.58;;;;;;;15.31;100.00;98736.13;5366771;27;20008;-81
2023/01/17 12:05:23;;;;;;;6.28;3.78;;;;;;;16.68;100.00;98738.34;5363039;27;20031;-83
2023/01/17 12:08:13;;;;;;;6.18;3.60;;;;;;;16.40;92.78;98739.84;5352782;27;20492;-84
2023/01/17 12:10:53;;;;;;;4.93;3.45;;;;;;;18.14;100.00;98734.63;5345987;27;20024;-84
2023/01/17 12:14:01;;;;;;;5.95;3.60;;;;;;;20.90;100.00;98747.22;5345443;27;20023;-84
2023/01/17 12:16:32;;;;;;;;;;;;;;;23.40;100.00;98739.75;5345202;27;20066;-84
2023/01/17 12:19:31;;;;;;;2.90;2.23;;;;;;;21.81;80.25;98742.50;5345575;27;19954;-85
2023/01/17 12:22:33;;;;;;;5.07;2.95;;;;;;;22.70;73.64;98736.88;5344873;27;20039;-85
2023/01/17 12:25:26;;;;;;;5.82;2.92;;;;;;;20.29;52.48;98733.97;5349504;27;20519;-85
2023/01/17 12:28:24;;;;;;;4.72;2.85;;;;;;;21.08;57.67;98734.31;5348636;27;20410;-84
2023/01/17 12:31:17;;;;;;;6.65;3.50;;;;;;;19.96;67.45;98727.72;5348197;27;20027;-84
2023/01/17 12:34:04;;;;;;;5.82;3.13;;;;;;;20.17;61.77;98733.34;5348636;27;20031;-84
2023/01/17 12:36:57;;;;;;;5.57;2.55;;;;;;;19.81;58.44;98722.97;5348956;27;20380;-84
2023/01/17 12:39:45;;;;;;;5.47;2.08;;;;;;;20.55;64.18;98726.06;5330036;27;20481;-85
2023/01/17 12:42:23;;;;;;;3.95;2.08;;;;;;;20.62;63.77;98723.16;5348788;27;20436;-84
2023/01/17 12:45:08;;;;;;;6.13;2.60;;;;;;;21.72;66.01;98719.66;5347992;27;20019;-84
2023/01/17 12:47:44;;;;;;;3.97;2.10;;;;;;;20.70;54.01;98715.38;5326915;28;20019;-84
2023/01/17 12:50:34;;;;;;;;;;;;;;;23.97;71.90;98728.59;5309330;28;20024;-84
2023/01/17 12:53:18;;;;;;;3.47;2.10;;;;;;;22.35;61.61;98716.81;5327329;28;20331;-84
2023/01/17 12:55:55;;;;;;;5.07;2.35;;;;;;;21.38;52.60;98711.94;5308525;28;20019;-83
2023/01/17 12:58:35;;;;;;;5.13;2.50;;;;;;;21.07;45.50;98713.69;5327102;28;20530;-83
2023/01/17 13:01:28;;;;;;;7.60;2.60;;;;;;;22.13;49.89;98721.66;5337908;27;20526;-83
2023/01/17 13:04:10;;;;;;;4.55;3.30;;;;;;;20.92;45.26;98715.25;5348709;27;20099;-83
2023/01/17 13:07:03;;;;;;;4.82;3.55;;;;;;;20.53;55.04;98711.97;5348191;27;20031;-83
2023/01/17 13:09:47;;;;;;;4.63;2.88;;;;;;;20.44;54.11;98711.66;5348887;27;20040;-83
2023/01/17 13:12:21;;;;;;;4.45;2.45;;;;;;;19.75;53.14;98712.34;5348118;27;20023;-83
2023/01/17 13:14:53;;;;;;;7.15;2.83;;;;;;;20.14;44.75;98712.19;5347547;27;20413;-84
2023/01/17 13:17:45;;;;;;;4.90;2.58;;;;;;;21.85;54.48;98711.03;5347960;27;20039;-83
2023/01/17 13:20:41;;;;;;;3.88;2.30;;;;;;;20.87;48.79;98707.09;5349560;27;20034;-83
2023/01/17 13:23:47;;;;;;;4.10;2.10;;;;;;;21.52;44.25;98706.88;5348839;27;20035;-84
2023/01/17 13:26:43;;;;;;;3.88;1.90;;;;;;;21.99;51.67;98714.03;5355990;27;20430;-84